x

Pensacola - 115nm Ese Of Pensacola, Fl (42039) Wave Buoy

1:50am - Sat 6th Feb 2016 All times are CST. -6 hours from GMT.

  • Sig Wave height 3.6ft
  • Swell Direction
  • Peak Period 6s
  • Average Period 4s
  • Wind
    13mph, 18mph gusts
  • Sea Temp 70°f
  • Air Temp 56°f
  • Sea Pressure 1025mb
  • Pensacola - 115nm Ese Of Pensacola, Fl
  • Pensacola - 115nm Ese Of Pensacola, Fl

More Historic Weather Station data

Upgrade to MSW Pro to gain access to the past 30 days of data for over 8000 Wavebouys and Weather Stations around the globe.

Join Pro

Comparision Forecast

View Surf forecast
   
Sat 02/06 1:50am 3.5ft 6s 4s 13 18 mph 1025mb 70f 56f
12:50am 4ft 5s 4s 16 22 mph 1025.9mb 70f 56f
Fri 02/05 11:50pm 4ft 5s 4s 16 22 mph 1026.4mb 70f 56f
10:50pm 3.5ft 5s 4s 18 25 mph 1026.1mb 70f 56f
9:50pm 4ft 5s 4s 18 25 mph 1026.2mb 70f 57f
8:50pm 4.5ft 6s 5s 18 25 mph 1025.8mb 70f 57f
7:50pm 4.5ft 6s 5s 18 22 mph 1026.4mb 71f 57f
6:50pm 4.5ft 6s 5s 18 25 mph 1026.4mb 71f 56f
5:50pm 4.5ft 6s 5s 18 22 mph 1026.9mb 71f 56f
4:50pm 5ft 7s 5s 16 20 mph 1026.7mb 71f 56f
3:50pm 5.5ft 6s 5s 18 22 mph 1026.1mb 71f 55f
2:50pm 6.5ft 7s 6s 16 20 mph 1026.4mb 71f 55f
1:50pm 7.5ft 7s 6s 18 22 mph 1026.7mb 71f 54f
12:50pm 7.5ft 7s 6s 18 22 mph 1027.3mb 71f 53f
11:50am 8ft 7s 6s 20 29 mph 1028.3mb 71f 54f
10:50am 8ft 8s 6s 25 29 mph 1028.7mb 71f 53f
9:50am 9ft 7s 6s 25 31 mph 1029.2mb 71f 53f
8:50am 9ft 8s 6s 27 34 mph 1028.7mb 71f 53f
7:50am 8.5ft 7s 6s 29 34 mph 1028mb 70f 53f
6:50am 8.5ft 8s 6s 29 36 mph 1027.3mb 70f 53f
5:50am 9ft 8s 6s 29 36 mph 1026.6mb 69f 53f
4:50am 8ft 7s 5s 27 31 mph 1026.1mb 69f 53f
3:50am 9ft 8s 6s 29 34 mph 1025.8mb 69f 53f
2:50am 8.5ft 8s 6s 29 36 mph 1025.7mb 69f 53f
1:50am 8.5ft 8s 6s 27 36 mph 1025.7mb 69f 54f
12:50am 9ft 8s 6s 29 36 mph 1025.3mb 69f 55f
Thu 02/04 11:50pm 9ft 8s 6s 29 36 mph 1025.3mb 70f 56f
10:50pm 8ft 7s 5s 29 36 mph 1025.4mb 71f 57f
9:50pm 7.5ft 6s 5s 29 36 mph 1025.2mb 71f 58f
8:50pm 6.5ft 6s 5s 31 40 mph 1023.7mb 72f 58f
7:50pm 7ft 6s 5s 31 40 mph 1022.7mb 72f 60f
6:50pm 6ft 6s 5s 27 34 mph 1022mb 72f 60f
5:50pm 6ft 6s 5s 27 31 mph 1020.9mb 72f 59f
4:50pm 6ft 6s 5s 25 29 mph 1020.3mb 72f 59f
3:50pm 6ft 7s 5s 22 27 mph 1020.4mb 72f 59f
2:50pm 6ft 6s 5s 25 31 mph 1019.6mb 72f 60f
1:50pm 7ft 6s 5s 25 27 mph 1019.3mb 72f 60f
12:50pm 6.5ft 7s 5s 22 29 mph 1019.2mb 72f 60f
11:50am 6.5ft 6s 5s 22 27 mph 1020.5mb 72f 60f
10:50am 6ft 6s 5s 22 27 mph 1020.4mb 72f 60f
9:50am 6ft 6s 5s 22 27 mph 1020.3mb 72f 60f
8:50am 6ft 6s 5s 22 27 mph 1019.9mb 72f 60f
7:50am 6ft 6s 5s 25 29 mph 1018.4mb 72f 60f
6:50am 6ft 6s 5s 22 29 mph 1018.2mb 72f 62f
5:50am 6ft 6s 5s 22 29 mph 1017.2mb 72f 63f
4:50am 6ft 6s 5s 22 25 mph 1017.2mb 72f 63f
3:50am 6ft 6s 5s 22 29 mph 1016.7mb 72f 64f
2:50am 6ft 6s 5s 22 27 mph 1016.4mb 72f 64f
1:50am 6ft 6s 5s 25 29 mph 1016.5mb 72f 65f
12:50am 7ft 6s 5s 22 27 mph 1016.7mb 72f 65f
Wed 02/03 11:50pm 6ft 6s 5s 22 27 mph 1016.9mb 72f 66f
10:50pm 6ft 6s 5s 20 25 mph 1017.1mb 72f 66f
9:50pm 6.5ft 6s 5s 20 22 mph 1016.7mb 72f 66f
8:50pm 5.5ft 7s 5s 22 27 mph 1016.1mb 72f 66f
7:50pm 5ft 7s 5s 22 27 mph 1015.8mb 72f 66f
6:50pm 4.5ft 7s 5s 20 25 mph 1014.8mb 72f 67f
5:50pm 5ft 8s 5s 16 22 mph 1014mb 72f 68f
4:50pm 5ft 8s 5s 18 20 mph 1012.9mb 73f 74f
3:50pm 5.5ft 7s 5s 18 20 mph 1012.9mb 73f 74f
2:50pm 5ft 7s 5s 20 22 mph 1012.6mb 73f 75f
1:50pm 5.5ft 7s 5s 20 22 mph 1012.4mb 73f 74f
12:50pm 5ft 7s 5s 20 22 mph 1012.8mb 73f 74f
11:50am 5.5ft 7s 5s 18 22 mph 1013.7mb 73f 74f
10:50am 6ft 7s 5s 20 25 mph 1014.2mb 73f 74f
9:50am 5.5ft 7s 5s 22 27 mph 1014.4mb 73f 74f
8:50am 5.5ft 7s 5s 22 27 mph 1014mb 73f 74f
7:50am 5.5ft 7s 5s 18 22 mph 1014.2mb 73f 74f
6:50am 5ft 7s 5s 18 20 mph 1014.1mb 73f 74f
5:50am 5ft 7s 5s 18 20 mph 1013.8mb 73f 74f
4:50am 5ft 7s 5s 18 22 mph 1013.4mb 73f 74f
3:50am 5ft 6s 5s 18 22 mph 1013.2mb 73f 74f
2:50am 5ft 7s 5s 22 27 mph 1012.6mb 73f 74f
1:50am 5ft 7s 5s 25 27 mph 1012.6mb 73f 74f
12:50am 5ft 6s 5s 20 25 mph 1013.9mb 73f 74f
Tue 02/02 11:50pm 5ft 6s 5s 18 22 mph 1014.5mb 73f 73f
10:50pm 5ft 6s 5s 18 22 mph 1014.8mb 73f 73f
9:50pm 4.5ft 6s 5s 22 27 mph 1014.9mb 73f 73f
8:50pm 5ft 6s 5s 22 27 mph 1014.3mb 73f 73f
7:50pm 5.5ft 6s 5s 20 27 mph 1014.9mb 73f 73f
6:50pm 5ft 6s 5s 22 27 mph 1014.3mb 73f 73f
5:50pm 5ft 6s 5s 22 27 mph 1014.2mb 73f 73f
4:50pm 5ft 6s 5s 20 25 mph 1013.9mb 73f 73f
3:50pm 6ft 6s 5s 22 27 mph 1013.7mb 73f 73f
2:50pm 6ft 6s 5s 22 25 mph 1013.6mb 73f 73f
1:50pm 5.5ft 6s 5s 22 27 mph 1013.8mb 73f 73f
12:50pm 5ft 6s 5s 22 27 mph 1014.2mb 73f 73f
11:50am 5.5ft 6s 5s 22 25 mph 1015.2mb 73f 73f
10:50am 5ft 6s 5s 22 27 mph 1015.8mb 73f 73f
9:50am 4.5ft 5s 4s 22 29 mph 1015.9mb 73f 73f
8:50am 4ft 5s 4s 20 25 mph 1015.4mb 73f 73f